createdAt,value
2022-09-11T00:00:53.937Z,99537.49
2022-09-11T00:03:37.334Z,99534.95
2022-09-11T00:06:12.381Z,99536.38
2022-09-11T00:08:45.335Z,99531.14
2022-09-11T00:11:19.676Z,99529.40
2022-09-11T00:13:54.116Z,99526.77
2022-09-11T00:16:28.704Z,99529.07
2022-09-11T00:19:04.172Z,99526.30
2022-09-11T00:21:36.501Z,99523.72
2022-09-11T00:24:10.149Z,99520.77
2022-09-11T00:26:42.751Z,99519.73
2022-09-11T00:29:14.763Z,99518.55
2022-09-11T00:31:46.714Z,99516.33
2022-09-11T00:34:18.892Z,99511.87
2022-09-11T00:36:51.304Z,99512.98
2022-09-11T00:39:23.195Z,99509.88
2022-09-11T00:41:55.427Z,99509.21
2022-09-11T00:45:02.007Z,99506.50
2022-09-11T00:47:35.297Z,99500.92
2022-09-11T00:50:14.831Z,99499.29
2022-09-11T00:52:54.902Z,99500.73
2022-09-11T00:55:32.286Z,99498.48
2022-09-11T00:58:07.352Z,99496.30
2022-09-11T01:00:40.575Z,99498.86
2022-09-11T01:03:12.794Z,99495.05
2022-09-11T01:05:44.935Z,99496.61
2022-09-11T01:08:17.128Z,99496.30
2022-09-11T01:11:01.552Z,99491.23
2022-09-11T01:13:38.906Z,99491.60
2022-09-11T01:16:19.959Z,99491.50
2022-09-11T01:19:02.200Z,99488.48
2022-09-11T01:22:02.291Z,99484.80
2022-09-11T01:24:56.529Z,99483.98
2022-09-11T01:27:50.741Z,99483.21
2022-09-11T01:30:25.153Z,99478.09
2022-09-11T01:33:12.381Z,99478.48
2022-09-11T01:35:55.286Z,99474.97
2022-09-11T01:38:34.854Z,99474.58
2022-09-11T01:41:12.551Z,99476.06
2022-09-11T01:43:51.458Z,99472.17
2022-09-11T01:46:27.318Z,99471.95
2022-09-11T01:49:04.932Z,99473.17
2022-09-11T01:51:39.121Z,99471.41
2022-09-11T01:54:16.464Z,99469.16
2022-09-11T01:56:52.554Z,99466.48
2022-09-11T01:59:29.124Z,99467.89
2022-09-11T02:02:07.776Z,99464.61
2022-09-11T02:04:43.645Z,99466.54
2022-09-11T02:07:19.246Z,99465.02
2022-09-11T02:09:59.379Z,99466.06
2022-09-11T02:12:41.535Z,99463.19
2022-09-11T02:15:16.973Z,99459.29
2022-09-11T02:17:55.629Z,99465.34
2022-09-11T02:20:31.423Z,99463.90
2022-09-11T02:23:03.352Z,99464.66
2022-09-11T02:25:35.347Z,99464.73
2022-09-11T02:28:10.788Z,99462.63
2022-09-11T02:30:43.991Z,99464.20
2022-09-11T02:33:36.012Z,99466.09
2022-09-11T02:36:22.379Z,99463.15
2022-09-11T02:39:08.850Z,99457.93
2022-09-11T02:41:52.743Z,99456.44
2022-09-11T02:44:36.533Z,99454.92
2022-09-11T02:47:20.255Z,99457.05
2022-09-11T02:50:07.360Z,99452.90
2022-09-11T02:52:50.727Z,99453.80
2022-09-11T02:55:30.242Z,99453.02
2022-09-11T02:58:08.705Z,99452.58
2022-09-11T03:00:41.095Z,99450.89
2022-09-11T03:03:13.514Z,99451.30
2022-09-11T03:05:46.646Z,99446.80
2022-09-11T03:08:19.366Z,99446.68
2022-09-11T03:10:51.205Z,99443.42
2022-09-11T03:13:23.180Z,99442.91
2022-09-11T03:15:55.388Z,99442.02
2022-09-11T03:18:27.342Z,99438.20
2022-09-11T03:20:59.166Z,99434.25
2022-09-11T03:23:31.926Z,99436.20
2022-09-11T03:26:03.759Z,99436.36
2022-09-11T03:28:35.816Z,99438.52
2022-09-11T03:31:13.423Z,99434.04
2022-09-11T03:33:45.333Z,99431.42
2022-09-11T03:36:19.517Z,99434.25
2022-09-11T03:38:52.883Z,99431.31
2022-09-11T03:41:26.226Z,99433.04
2022-09-11T03:43:58.290Z,99430.49
2022-09-11T03:46:30.158Z,99431.94
2022-09-11T03:49:02.885Z,99430.06
2022-09-11T03:51:35.969Z,99433.17
2022-09-11T03:54:08.027Z,99432.23
2022-09-11T03:56:40.047Z,99428.23
2022-09-11T03:59:12.776Z,99428.60
2022-09-11T04:01:44.638Z,99426.58
2022-09-11T04:04:17.336Z,99430.44
2022-09-11T04:06:49.159Z,99431.66
2022-09-11T04:09:21.214Z,99431.01
2022-09-11T04:11:54.847Z,99428.10
2022-09-11T04:14:30.043Z,99428.09
2022-09-11T04:17:03.166Z,99427.10
2022-09-11T04:19:34.995Z,99424.25
2022-09-11T04:22:07.143Z,99426.05
2022-09-11T04:24:40.818Z,99427.10
2022-09-11T04:27:12.996Z,99427.48
2022-09-11T04:29:44.879Z,99425.48
2022-09-11T04:32:17.198Z,99428.50
2022-09-11T04:34:49.447Z,99428.15
2022-09-11T04:37:22.076Z,99428.13
2022-09-11T04:39:54.277Z,99428.79
2022-09-11T04:42:27.095Z,99426.35
2022-09-11T04:44:59.320Z,99421.11
2022-09-11T04:47:31.496Z,99417.77
2022-09-11T04:50:03.356Z,99418.88
2022-09-11T04:52:35.314Z,99418.08
2022-09-11T04:55:08.805Z,99413.95
2022-09-11T04:57:41.115Z,99413.12
2022-09-11T05:00:15.615Z,99412.14
2022-09-11T05:02:48.755Z,99412.45
2022-09-11T05:05:21.637Z,99410.95
2022-09-11T05:07:53.581Z,99407.04
2022-09-11T05:10:27.277Z,99408.05
2022-09-11T05:12:59.289Z,99408.08
2022-09-11T05:15:33.141Z,99404.23
2022-09-11T05:18:05.380Z,99407.59
2022-09-11T05:20:37.638Z,99405.75
2022-09-11T05:23:09.555Z,99402.41
2022-09-11T05:25:42.020Z,99399.09
2022-09-11T05:28:13.820Z,99402.83
2022-09-11T05:30:46.007Z,99404.31
2022-09-11T05:33:17.917Z,99402.29
2022-09-11T05:35:51.216Z,99404.59
2022-09-11T05:38:24.848Z,99407.65
2022-09-11T05:40:57.370Z,99406.79
2022-09-11T05:43:29.278Z,99405.05
2022-09-11T05:46:02.038Z,99404.85
2022-09-11T05:48:35.251Z,99410.73
2022-09-11T05:51:10.792Z,99403.41
2022-09-11T05:53:43.686Z,99403.77
2022-09-11T05:56:18.049Z,99405.56
2022-09-11T05:58:52.668Z,99403.34
2022-09-11T06:01:27.768Z,99405.41
2022-09-11T06:04:09.771Z,99408.48
2022-09-11T06:06:42.132Z,99408.63
2022-09-11T06:09:14.150Z,99412.58
2022-09-11T06:11:46.057Z,99413.95
2022-09-11T06:14:18.212Z,99414.95
2022-09-11T06:16:50.737Z,99416.13
2022-09-11T06:19:22.980Z,99415.25
2022-09-11T06:21:56.426Z,99414.98
2022-09-11T06:24:30.383Z,99415.32
2022-09-11T06:27:02.277Z,99410.52
2022-09-11T06:29:34.326Z,99415.55
2022-09-11T06:32:06.837Z,99412.89
2022-09-11T06:34:39.318Z,99416.00
2022-09-11T06:37:13.302Z,99413.17
2022-09-11T06:39:45.852Z,99409.73
2022-09-11T06:42:23.615Z,99413.16
2022-09-11T06:44:55.945Z,99412.61
2022-09-11T06:47:29.051Z,99413.75
2022-09-11T06:50:02.710Z,99413.30
2022-09-11T06:52:43.988Z,99416.77
2022-09-11T06:55:27.891Z,99417.67
2022-09-11T06:58:04.089Z,99418.94
2022-09-11T07:00:37.707Z,99420.41
2022-09-11T07:03:09.925Z,99420.95
2022-09-11T07:05:48.463Z,99417.59
2022-09-11T07:08:24.841Z,99420.06
2022-09-11T07:11:03.585Z,99421.11
2022-09-11T07:13:46.053Z,99417.55
2022-09-11T07:16:19.685Z,99421.14
2022-09-11T07:18:56.435Z,99419.88
2022-09-11T07:21:29.096Z,99418.27
2022-09-11T07:24:04.014Z,99414.16
2022-09-11T07:26:40.297Z,99414.03
2022-09-11T07:29:19.848Z,99412.71
2022-09-11T07:31:55.884Z,99409.14
2022-09-11T07:34:30.448Z,99411.98
2022-09-11T07:37:03.869Z,99407.48
2022-09-11T07:39:36.253Z,99409.63
2022-09-11T07:42:19.210Z,99410.52
2022-09-11T07:44:51.765Z,99414.52
2022-09-11T07:47:23.899Z,99417.65
2022-09-11T07:49:56.927Z,99413.95
2022-09-11T07:52:29.511Z,99414.77
2022-09-11T07:55:04.548Z,99411.94
2022-09-11T07:57:38.839Z,99412.36
2022-09-11T08:00:16.384Z,99410.10
2022-09-11T08:02:59.176Z,99411.38
2022-09-11T08:05:38.048Z,99418.95
2022-09-11T08:08:10.280Z,99418.30
2022-09-11T08:10:42.942Z,99419.21
2022-09-11T08:13:16.834Z,99420.81
2022-09-11T08:15:51.944Z,99415.48
2022-09-11T08:18:24.836Z,99415.27
2022-09-11T08:21:01.703Z,99413.14
2022-09-11T08:23:34.228Z,99412.98
2022-09-11T08:26:12.193Z,99414.48
2022-09-11T08:28:46.082Z,99414.54
2022-09-11T08:31:18.933Z,99419.23
2022-09-11T08:33:51.216Z,99419.15
2022-09-11T08:36:25.204Z,99416.94
2022-09-11T08:38:57.672Z,99422.11
2022-09-11T08:41:41.167Z,99418.88
2022-09-11T08:44:21.003Z,99419.72
2022-09-11T08:46:57.901Z,99420.23
2022-09-11T08:49:35.569Z,99417.80
2022-09-11T08:52:12.387Z,99422.33
2022-09-11T08:54:47.549Z,99424.05
2022-09-11T08:57:25.410Z,99424.18
2022-09-11T09:00:07.591Z,99425.40
2022-09-11T09:02:58.699Z,99426.58
2022-09-11T09:05:38.652Z,99428.27
2022-09-11T09:08:25.470Z,99421.17
2022-09-11T09:11:06.316Z,99433.34
2022-09-11T09:13:54.889Z,99431.17
2022-09-11T09:16:46.489Z,99435.38
2022-09-11T09:19:25.615Z,99432.21
2022-09-11T09:22:06.936Z,99435.44
2022-09-11T09:24:44.558Z,99434.90
2022-09-11T09:27:21.500Z,99438.85
2022-09-11T09:30:02.013Z,99441.10
2022-09-11T09:32:40.327Z,99440.45
2022-09-11T09:35:17.937Z,99442.59
2022-09-11T09:37:49.965Z,99439.96
2022-09-11T09:40:24.871Z,99447.59
2022-09-11T09:43:12.260Z,99447.71
2022-09-11T09:45:52.226Z,99452.76
2022-09-11T09:48:25.579Z,99451.20
2022-09-11T09:50:57.447Z,99449.04
2022-09-11T09:53:36.064Z,99451.52
2022-09-11T09:56:08.960Z,99450.52
2022-09-11T09:58:50.058Z,99452.45
2022-09-11T10:01:47.753Z,99446.09
2022-09-11T10:04:23.891Z,99449.54
2022-09-11T10:07:08.419Z,99445.42
2022-09-11T10:09:48.337Z,99442.73
2022-09-11T10:12:26.523Z,99441.45
2022-09-11T10:15:01.456Z,99438.02
2022-09-11T10:17:37.538Z,99440.31
2022-09-11T10:20:25.945Z,99443.02
2022-09-11T10:23:18.549Z,99449.79
2022-09-11T10:25:52.005Z,99451.33
2022-09-11T10:28:32.213Z,99451.13
2022-09-11T10:31:06.131Z,99450.65
2022-09-11T10:33:42.710Z,99446.39
2022-09-11T10:36:22.690Z,99441.77
2022-09-11T10:38:56.245Z,99440.96
2022-09-11T10:41:32.303Z,99433.16
2022-09-11T10:44:07.853Z,99437.72
2022-09-11T10:46:41.477Z,99430.55
2022-09-11T10:49:22.835Z,99428.44
2022-09-11T10:52:17.354Z,99427.39
2022-09-11T10:55:04.831Z,99424.19
2022-09-11T10:57:45.132Z,99419.44
2022-09-11T11:00:21.606Z,99414.08
2022-09-11T11:02:57.054Z,99409.83
2022-09-11T11:05:34.629Z,99409.84
2022-09-11T11:08:23.867Z,99405.52
2022-09-11T11:11:07.610Z,99407.42
2022-09-11T11:13:55.741Z,99409.95
2022-09-11T11:16:43.053Z,99402.84
2022-09-11T11:19:31.607Z,99404.95
2022-09-11T11:22:16.542Z,99403.09
2022-09-11T11:25:05.157Z,99399.83
2022-09-11T11:28:00.479Z,99398.99
2022-09-11T11:30:37.833Z,99405.83
2022-09-11T11:33:35.484Z,99406.53
2022-09-11T11:36:15.380Z,99401.89
2022-09-11T11:39:00.297Z,99403.30
2022-09-11T11:41:38.821Z,99403.55
2022-09-11T11:44:17.338Z,99399.92
2022-09-11T11:46:55.628Z,99401.52
2022-09-11T11:49:39.801Z,99404.51
2022-09-11T11:52:24.775Z,99406.16
2022-09-11T11:55:02.901Z,99405.67
2022-09-11T11:57:41.904Z,99403.27
2022-09-11T12:00:19.368Z,99404.25
2022-09-11T12:02:59.101Z,99394.39
2022-09-11T12:05:34.832Z,99396.70
2022-09-11T12:08:11.899Z,99393.48
2022-09-11T12:10:48.037Z,99397.20
2022-09-11T12:13:31.002Z,99396.70
2022-09-11T12:16:12.487Z,99393.77
2022-09-11T12:19:02.192Z,99393.80
2022-09-11T12:21:40.759Z,99392.17
2022-09-11T12:24:19.855Z,99392.41
2022-09-11T12:27:29.292Z,99396.81
2022-09-11T12:30:21.442Z,99395.61
2022-09-11T12:32:55.035Z,99397.40
2022-09-11T12:35:41.674Z,99398.27
2022-09-11T12:38:24.085Z,99394.69
2022-09-11T12:40:59.921Z,99395.02
2022-09-11T12:43:47.745Z,99394.82
2022-09-11T12:46:55.166Z,99395.44
2022-09-11T12:49:28.770Z,99395.61
2022-09-11T12:52:03.264Z,99393.94
2022-09-11T12:54:41.064Z,99390.09
2022-09-11T12:57:21.347Z,99390.66
2022-09-11T13:00:00.266Z,99393.17
2022-09-11T13:02:39.337Z,99389.59
2022-09-11T13:05:23.596Z,99386.36
2022-09-11T13:07:59.636Z,99388.15
2022-09-11T13:10:37.526Z,99385.73
2022-09-11T13:13:44.911Z,99381.59
2022-09-11T13:16:25.804Z,99384.77
2022-09-11T13:19:03.051Z,99387.84
2022-09-11T13:21:40.540Z,99385.45
2022-09-11T13:24:27.552Z,99383.53
2022-09-11T13:26:59.846Z,99384.08
2022-09-11T13:29:37.949Z,99384.43
2022-09-11T13:32:14.780Z,99384.95
2022-09-11T13:34:50.002Z,99387.45
2022-09-11T13:37:35.810Z,99387.36
2022-09-11T13:40:19.001Z,99388.40
2022-09-11T13:42:51.845Z,99388.56
2022-09-11T13:45:25.061Z,99389.89
2022-09-11T13:47:58.082Z,99388.92
2022-09-11T13:50:30.064Z,99386.33
2022-09-11T13:53:03.362Z,99392.48
2022-09-11T13:55:35.463Z,99382.15
2022-09-11T13:58:24.648Z,99387.11
2022-09-11T14:00:56.998Z,99382.56
2022-09-11T14:03:31.859Z,99386.71
2022-09-11T14:06:10.074Z,99388.46
2022-09-11T14:08:46.746Z,99391.27
2022-09-11T14:11:26.197Z,99391.34
2022-09-11T14:14:01.026Z,99392.02
2022-09-11T14:16:36.319Z,99392.80
2022-09-11T14:19:14.300Z,99392.41
2022-09-11T14:21:48.455Z,99397.31
2022-09-11T14:24:32.658Z,99392.38
2022-09-11T14:27:27.554Z,99391.52
2022-09-11T14:30:00.623Z,99394.18
2022-09-11T14:32:36.950Z,99395.91
2022-09-11T14:35:12.755Z,99401.01
2022-09-11T14:37:47.187Z,99405.44
2022-09-11T14:40:20.406Z,99408.21
2022-09-11T14:42:52.823Z,99403.02
2022-09-11T14:45:26.961Z,99405.79
2022-09-11T14:47:58.851Z,99407.39
2022-09-11T14:50:30.963Z,99407.11
2022-09-11T14:53:02.978Z,99407.11
2022-09-11T14:55:36.660Z,99413.84
2022-09-11T14:58:09.105Z,99409.46
2022-09-11T15:00:41.754Z,99409.11
2022-09-11T15:03:15.155Z,99408.40
2022-09-11T15:05:49.011Z,99410.35
2022-09-11T15:08:20.881Z,99409.52
2022-09-11T15:10:54.557Z,99406.05
2022-09-11T15:13:27.291Z,99407.66
2022-09-11T15:15:59.251Z,99415.39
2022-09-11T15:18:31.440Z,99415.73
2022-09-11T15:21:03.280Z,99417.95
2022-09-11T15:23:35.165Z,99423.88
2022-09-11T15:26:08.378Z,99424.77
2022-09-11T15:28:40.185Z,99422.19
2022-09-11T15:31:12.559Z,99425.42
2022-09-11T15:33:47.643Z,99427.91
2022-09-11T15:36:21.465Z,99431.80
2022-09-11T15:38:56.816Z,99438.33
2022-09-11T15:41:30.195Z,99438.73
2022-09-11T15:44:02.746Z,99446.59
2022-09-11T15:46:35.367Z,99445.34
2022-09-11T15:49:07.690Z,99448.06
2022-09-11T15:51:41.198Z,99454.42
2022-09-11T15:54:15.851Z,99464.52
2022-09-11T15:56:48.153Z,99465.38
2022-09-11T15:59:20.491Z,99468.27
2022-09-11T16:01:52.389Z,99468.86
2022-09-11T16:04:29.179Z,99468.23
2022-09-11T16:07:01.537Z,99472.39
2022-09-11T16:09:34.425Z,99470.99
2022-09-11T16:12:07.497Z,99475.48
2022-09-11T16:14:40.026Z,99478.76
2022-09-11T16:17:16.822Z,99478.39
2022-09-11T16:19:49.240Z,99483.52
2022-09-11T16:22:21.193Z,99480.19
2022-09-11T16:24:53.256Z,99483.88
2022-09-11T16:27:25.912Z,99483.23
2022-09-11T16:32:50.754Z,99488.32
2022-09-11T16:35:23.573Z,99488.49
2022-09-11T16:37:56.258Z,99491.20
2022-09-11T16:40:28.175Z,99493.82
2022-09-11T16:43:00.217Z,99494.70
2022-09-11T16:45:32.801Z,99494.59
2022-09-11T16:48:06.703Z,99495.73
2022-09-11T16:50:39.456Z,99498.73
2022-09-11T16:53:13.998Z,99499.44
2022-09-11T16:55:47.319Z,99499.67
2022-09-11T16:58:19.475Z,99506.17
2022-09-11T17:00:51.872Z,99506.45
2022-09-11T17:03:23.872Z,99510.73
2022-09-11T17:05:57.862Z,99513.16
2022-09-11T17:08:30.485Z,99514.86
2022-09-11T17:11:04.620Z,99517.49
2022-09-11T17:13:37.413Z,99526.36
2022-09-11T17:16:16.634Z,99522.46
2022-09-11T17:18:51.153Z,99528.13
2022-09-11T17:21:25.338Z,99535.07
2022-09-11T17:24:00.025Z,99542.64
2022-09-11T17:26:32.685Z,99546.98
2022-09-11T17:29:06.508Z,99549.95
2022-09-11T17:31:38.864Z,99558.09
2022-09-11T17:34:10.889Z,99556.29
2022-09-11T17:36:43.314Z,99561.73
2022-09-11T17:39:15.304Z,99565.80
2022-09-11T17:41:47.196Z,99567.02
2022-09-11T17:44:19.246Z,99567.00
2022-09-11T17:46:52.169Z,99569.66
2022-09-11T17:49:24.044Z,99562.81
2022-09-11T17:51:57.135Z,99561.29
2022-09-11T17:54:29.596Z,99555.05
2022-09-11T17:57:01.933Z,99553.34
2022-09-11T17:59:33.907Z,99557.30
2022-09-11T18:02:06.647Z,99559.94
2022-09-11T18:04:38.930Z,99558.95
2022-09-11T18:07:11.112Z,99558.31
2022-09-11T18:09:43.435Z,99555.75
2022-09-11T18:12:15.667Z,99557.06
2022-09-11T18:14:48.047Z,99560.73
2022-09-11T18:17:20.218Z,99560.58
2022-09-11T18:19:52.030Z,99563.45
2022-09-11T18:22:24.427Z,99565.27
2022-09-11T18:24:56.464Z,99564.27
2022-09-11T18:27:29.766Z,99568.45
2022-09-11T18:30:02.385Z,99569.13
2022-09-11T18:32:34.732Z,99574.06
2022-09-11T18:35:07.967Z,99572.03
2022-09-11T18:37:40.030Z,99569.60
2022-09-11T18:40:12.594Z,99568.77
2022-09-11T18:42:46.852Z,99571.54
2022-09-11T18:45:20.643Z,99567.91
2022-09-11T18:47:54.641Z,99566.72
2022-09-11T18:50:27.314Z,99561.47
2022-09-11T18:53:00.160Z,99562.85
2022-09-11T18:55:32.280Z,99567.30
2022-09-11T18:58:04.973Z,99576.55
2022-09-11T19:00:38.056Z,99577.70
2022-09-11T19:03:10.891Z,99574.98
2022-09-11T19:05:42.676Z,99574.31
2022-09-11T19:08:14.669Z,99565.02
2022-09-11T19:10:46.567Z,99569.28
2022-09-11T19:13:18.998Z,99566.01
2022-09-11T19:16:00.380Z,99564.71
2022-09-11T19:18:33.033Z,99569.38
2022-09-11T19:21:08.327Z,99565.60
2022-09-11T19:23:41.892Z,99569.91
2022-09-11T19:26:19.387Z,99564.98
2022-09-11T19:28:50.442Z,99568.94
2022-09-11T19:31:25.027Z,99570.38
2022-09-11T19:34:01.007Z,99573.88
2022-09-11T19:36:35.480Z,99574.71
2022-09-11T19:39:08.167Z,99576.45
2022-09-11T19:41:40.845Z,99576.54
2022-09-11T19:44:14.691Z,99571.42
2022-09-11T19:46:49.121Z,99575.41
2022-09-11T19:49:21.196Z,99570.94
2022-09-11T19:51:54.717Z,99574.22
2022-09-11T19:54:26.904Z,99575.23
2022-09-11T19:57:00.303Z,99576.48
2022-09-11T19:59:32.925Z,99571.94
2022-09-11T20:02:05.073Z,99572.48
2022-09-11T20:04:37.326Z,99572.15
2022-09-11T20:07:09.282Z,99573.05
2022-09-11T20:09:42.993Z,99572.55
2022-09-11T20:12:15.410Z,99575.05
2022-09-11T20:14:48.604Z,99572.16
2022-09-11T20:17:20.436Z,99566.98
2022-09-11T20:19:52.827Z,99567.40
2022-09-11T20:22:24.854Z,99565.58
2022-09-11T20:24:56.676Z,99568.59
2022-09-11T20:27:28.663Z,99569.91
2022-09-11T20:30:00.838Z,99571.93
2022-09-11T20:32:33.092Z,99571.48
2022-09-11T20:35:05.695Z,99573.08
2022-09-11T20:37:37.753Z,99569.13
2022-09-11T20:40:12.377Z,99569.89
2022-09-11T20:42:44.296Z,99570.33
2022-09-11T20:45:16.510Z,99568.83
2022-09-11T20:47:48.874Z,99566.79
2022-09-11T20:50:20.826Z,99568.95
2022-09-11T20:52:52.875Z,99575.27
2022-09-11T20:55:24.685Z,99569.58
2022-09-11T20:57:56.638Z,99570.59
2022-09-11T21:00:28.671Z,99566.59
2022-09-11T21:03:00.938Z,99569.31
2022-09-11T21:05:33.131Z,99565.03
2022-09-11T21:08:05.647Z,99569.01
2022-09-11T21:10:39.535Z,99567.33
2022-09-11T21:13:11.906Z,99568.98
2022-09-11T21:15:48.086Z,99571.67
2022-09-11T21:18:20.746Z,99573.91
2022-09-11T21:20:57.204Z,99577.08
2022-09-11T21:23:29.197Z,99577.17
2022-09-11T21:26:01.147Z,99578.30
2022-09-11T21:28:33.356Z,99573.85
2022-09-11T21:31:05.738Z,99578.89
2022-09-11T21:33:38.864Z,99580.60
2022-09-11T21:36:11.064Z,99585.36
2022-09-11T21:38:43.209Z,99586.45
2022-09-11T21:41:16.116Z,99589.45
2022-09-11T21:43:48.794Z,99591.73
2022-09-11T21:46:21.179Z,99586.42
2022-09-11T21:48:52.990Z,99589.64
2022-09-11T21:51:25.439Z,99591.30
2022-09-11T21:54:01.761Z,99590.73
2022-09-11T21:56:34.958Z,99590.17
2022-09-11T21:59:06.887Z,99590.66
2022-09-11T22:01:38.835Z,99589.58
2022-09-11T22:04:10.764Z,99590.89
2022-09-11T22:06:42.663Z,99591.32
2022-09-11T22:09:20.281Z,99594.34
2022-09-11T22:11:54.780Z,99595.11
2022-09-11T22:14:28.981Z,99595.20
2022-09-11T22:17:00.909Z,99597.62
2022-09-11T22:19:32.968Z,99599.96
2022-09-11T22:22:06.710Z,99603.36
2022-09-11T22:24:39.174Z,99608.16
2022-09-11T22:27:11.693Z,99600.04
2022-09-11T22:29:47.028Z,99604.20
2022-09-11T22:32:19.025Z,99607.21
2022-09-11T22:34:50.973Z,99610.36
2022-09-11T22:37:23.672Z,99607.82
2022-09-11T22:39:55.528Z,99606.19
2022-09-11T22:42:27.392Z,99606.77
2022-09-11T22:44:59.204Z,99606.98
2022-09-11T22:47:31.369Z,99601.39
2022-09-11T22:50:03.276Z,99600.80
2022-09-11T22:52:35.801Z,99602.11
2022-09-11T22:55:10.756Z,99600.30
2022-09-11T22:57:42.975Z,99599.71
2022-09-11T23:00:16.224Z,99598.73
2022-09-11T23:02:48.069Z,99605.05
2022-09-11T23:05:37.527Z,99608.06
2022-09-11T23:08:09.478Z,99610.55
2022-09-11T23:10:45.317Z,99610.08
2022-09-11T23:13:17.444Z,99612.52
2022-09-11T23:15:49.804Z,99617.55
2022-09-11T23:18:22.357Z,99609.77
2022-09-11T23:20:56.741Z,99613.62
2022-09-11T23:23:28.696Z,99609.39
2022-09-11T23:26:00.677Z,99609.09
2022-09-11T23:28:34.631Z,99611.82
2022-09-11T23:31:13.337Z,99611.08
2022-09-11T23:33:47.271Z,99611.80
2022-09-11T23:36:19.956Z,99613.02
2022-09-11T23:38:52.432Z,99609.58
2022-09-11T23:41:25.291Z,99609.81
2022-09-11T23:43:57.176Z,99605.05
2022-09-11T23:46:29.175Z,99609.54
2022-09-11T23:49:01.495Z,99613.83
2022-09-11T23:51:33.299Z,99610.76
2022-09-11T23:54:05.232Z,99608.92
2022-09-11T23:56:37.292Z,99609.52
2022-09-11T23:59:09.236Z,99612.60
